createdAt,value
2023-01-12T00:05:00.160Z,84.50
2023-01-12T00:10:01.887Z,83.11
2023-01-12T00:15:03.745Z,84.13
2023-01-12T00:20:06.658Z,83.08
2023-01-12T00:25:08.529Z,80.39
2023-01-12T00:30:13.515Z,80.75
2023-01-12T00:35:17.309Z,81.66
2023-01-12T00:40:19.133Z,79.92
2023-01-12T00:45:24.192Z,78.94
2023-01-12T00:50:26.013Z,79.48
2023-01-12T00:55:27.757Z,78.88
2023-01-12T01:00:29.450Z,79.16
2023-01-12T01:05:31.121Z,78.08
2023-01-12T01:10:32.795Z,78.52
2023-01-12T01:15:34.614Z,77.84
2023-01-12T01:20:36.700Z,77.54
2023-01-12T01:25:38.359Z,76.07
2023-01-12T01:30:40.065Z,75.39
2023-01-12T01:35:41.777Z,76.23
2023-01-12T01:40:43.628Z,75.00
2023-01-12T01:45:51.214Z,77.37
2023-01-12T01:50:58.273Z,75.58
2023-01-12T01:56:02.746Z,75.65
2023-01-12T02:01:05.129Z,74.46
2023-01-12T02:06:08.123Z,75.01
2023-01-12T02:11:30.664Z,73.95
2023-01-12T02:16:34.709Z,73.54
2023-01-12T02:22:30.229Z,75.42
2023-01-12T02:27:53.165Z,76.96
2023-01-12T02:33:36.070Z,76.76
2023-01-12T02:38:47.624Z,76.79
2023-01-12T02:43:50.188Z,76.02
2023-01-12T02:49:05.076Z,77.51
2023-01-12T02:54:19.775Z,77.38
2023-01-12T02:59:23.314Z,77.09
2023-01-12T03:04:28.189Z,77.55
2023-01-12T03:09:37.321Z,76.51
2023-01-12T03:14:43.006Z,76.57
2023-01-12T03:19:47.177Z,76.73
2023-01-12T03:24:56.967Z,76.79
2023-01-12T03:30:06.881Z,76.26
2023-01-12T03:35:09.376Z,76.70
2023-01-12T03:40:22.944Z,76.67
2023-01-12T03:45:33.955Z,76.35
2023-01-12T03:50:44.006Z,77.20
2023-01-12T03:55:50.718Z,76.73
2023-01-12T04:00:52.549Z,76.06
2023-01-12T04:05:54.307Z,76.30
2023-01-12T04:10:56.478Z,74.60
2023-01-12T04:15:58.210Z,75.63
2023-01-12T04:20:59.924Z,76.08
2023-01-12T04:26:02.561Z,76.32
2023-01-12T04:31:04.198Z,75.93
2023-01-12T04:36:06.265Z,74.38
2023-01-12T04:41:08.608Z,74.84
2023-01-12T04:46:10.866Z,76.04
2023-01-12T04:51:12.919Z,74.59
2023-01-12T04:56:15.266Z,74.08
2023-01-12T05:01:19.600Z,74.49
2023-01-12T05:06:22.281Z,74.67
2023-01-12T05:11:28.660Z,74.94
2023-01-12T05:16:30.760Z,74.05
2023-01-12T05:21:32.551Z,74.97
2023-01-12T05:26:34.244Z,74.09
2023-01-12T05:31:35.867Z,74.51
2023-01-12T05:36:37.631Z,73.63
2023-01-12T05:41:59.536Z,73.40
2023-01-12T05:47:01.163Z,74.18
2023-01-12T05:52:02.823Z,73.56
2023-01-12T05:57:04.547Z,73.34
2023-01-12T06:02:06.264Z,72.90
2023-01-12T06:07:08.075Z,72.51
2023-01-12T06:12:30.493Z,72.59
2023-01-12T06:17:32.236Z,73.02
2023-01-12T06:22:33.884Z,72.72
2023-01-12T06:27:35.981Z,73.30
2023-01-12T06:32:38.883Z,73.79
2023-01-12T06:37:40.588Z,73.66
2023-01-12T06:42:42.383Z,73.71
2023-01-12T06:47:49.387Z,73.91
2023-01-12T06:52:51.068Z,73.77
2023-01-12T06:57:53.174Z,75.54
2023-01-12T07:02:54.863Z,74.28
2023-01-12T07:08:03.121Z,74.21
2023-01-12T07:13:04.758Z,74.11
2023-01-12T07:18:06.407Z,74.41
2023-01-12T07:23:08.185Z,73.32
2023-01-12T07:28:11.262Z,74.07
2023-01-12T07:33:15.771Z,74.27
2023-01-12T07:38:18.765Z,73.10
2023-01-12T07:43:20.438Z,72.49
2023-01-12T07:48:22.839Z,72.37
2023-01-12T07:53:24.977Z,71.73
2023-01-12T07:58:27.620Z,71.49
2023-01-12T08:03:29.321Z,71.05
2023-01-12T08:08:31.266Z,70.21
2023-01-12T08:13:33.576Z,70.42
2023-01-12T08:18:48.042Z,71.37
2023-01-12T08:23:53.593Z,70.76
2023-01-12T08:29:03.817Z,69.95
2023-01-12T08:34:07.453Z,70.68
2023-01-12T08:39:09.607Z,69.54
2023-01-12T08:44:11.489Z,70.46
2023-01-12T08:49:16.866Z,69.83
2023-01-12T08:54:20.513Z,69.03
2023-01-12T08:59:22.356Z,69.69
2023-01-12T09:04:24.156Z,68.99
2023-01-12T09:09:25.875Z,68.33
2023-01-12T09:14:27.913Z,67.83
2023-01-12T09:19:29.551Z,67.63
2023-01-12T09:24:31.228Z,66.79
2023-01-12T09:29:32.869Z,66.38
2023-01-12T09:34:34.616Z,67.59
2023-01-12T09:39:36.295Z,67.31
2023-01-12T09:45:01.514Z,66.86
2023-01-12T09:50:11.740Z,66.03
2023-01-12T09:55:20.314Z,65.83
2023-01-12T10:00:23.027Z,65.57
2023-01-12T10:05:53.107Z,64.99
2023-01-12T10:11:26.101Z,66.21
2023-01-12T10:16:40.676Z,65.35
2023-01-12T10:21:43.187Z,66.56
2023-01-12T10:26:45.236Z,65.75
2023-01-12T10:31:46.963Z,64.38
2023-01-12T10:36:50.011Z,64.88
2023-01-12T10:42:08.788Z,64.75
2023-01-12T10:47:10.840Z,65.68
2023-01-12T10:52:35.252Z,64.92
2023-01-12T10:57:37.025Z,66.11
2023-01-12T11:02:44.120Z,66.88
2023-01-12T11:07:49.764Z,66.09
2023-01-12T11:13:05.957Z,67.32
2023-01-12T11:18:29.504Z,67.75
2023-01-12T11:23:47.753Z,69.01
2023-01-12T11:28:58.211Z,68.97
2023-01-12T11:34:05.347Z,68.83
2023-01-12T11:39:13.991Z,69.22
2023-01-12T11:44:21.341Z,71.55
2023-01-12T11:49:37.082Z,74.00
2023-01-12T11:54:39.593Z,79.01
2023-01-12T12:00:12.150Z,79.58
2023-01-12T12:05:16.800Z,81.79
2023-01-12T12:10:22.477Z,83.36
2023-01-12T12:15:52.531Z,82.34
2023-01-12T12:21:21.366Z,85.33
2023-01-12T12:27:04.769Z,87.91
2023-01-12T12:32:24.799Z,89.56
2023-01-12T12:37:43.259Z,90.86
2023-01-12T12:43:33.500Z,92.99
2023-01-12T12:49:05.850Z,97.15
2023-01-12T12:54:21.473Z,96.83
2023-01-12T12:59:31.895Z,100.00
2023-01-12T13:04:57.661Z,98.80
2023-01-12T13:10:24.052Z,99.49
2023-01-12T13:15:36.764Z,98.86
2023-01-12T13:20:54.243Z,100.00
2023-01-12T13:25:57.765Z,98.67
2023-01-12T13:31:00.333Z,97.94
2023-01-12T13:36:10.145Z,95.95
2023-01-12T13:41:15.298Z,98.32
2023-01-12T13:46:36.858Z,96.68
2023-01-12T13:51:42.609Z,97.72
2023-01-12T13:56:53.882Z,96.90
2023-01-12T14:01:56.031Z,97.16
2023-01-12T14:07:12.661Z,94.48
2023-01-12T14:12:19.967Z,94.23
2023-01-12T14:17:46.934Z,93.22
2023-01-12T14:22:50.295Z,94.81
2023-01-12T14:27:54.889Z,95.08
2023-01-12T14:32:56.638Z,96.34
2023-01-12T14:38:00.999Z,97.00
2023-01-12T14:43:21.562Z,96.04
2023-01-12T14:48:26.747Z,96.93
2023-01-12T14:53:39.306Z,94.02
2023-01-12T14:58:41.274Z,94.29
2023-01-12T15:03:48.544Z,91.97
2023-01-12T15:09:00.508Z,92.13
2023-01-12T15:14:04.454Z,93.00
2023-01-12T15:19:24.742Z,90.98
2023-01-12T15:24:47.504Z,90.92
2023-01-12T15:29:49.202Z,89.01
2023-01-12T15:34:51.048Z,88.50
2023-01-12T15:39:52.732Z,86.31
2023-01-12T15:44:54.392Z,87.09
2023-01-12T15:49:56.081Z,87.43
2023-01-12T15:54:57.841Z,86.60
2023-01-12T15:59:59.726Z,86.11
2023-01-12T16:05:03.071Z,88.49
2023-01-12T16:10:05.472Z,88.83
2023-01-12T16:15:09.036Z,88.57
2023-01-12T16:20:12.384Z,89.50
2023-01-12T16:25:15.059Z,88.08
2023-01-12T16:30:16.861Z,89.57
2023-01-12T16:35:18.570Z,88.83
2023-01-12T16:40:20.719Z,88.47
2023-01-12T16:45:22.377Z,87.69
2023-01-12T16:50:24.133Z,85.49
2023-01-12T16:55:25.820Z,85.88
2023-01-12T17:00:28.003Z,85.13
2023-01-12T17:05:30.423Z,84.81
2023-01-12T17:10:32.243Z,83.90
2023-01-12T17:15:34.837Z,84.51
2023-01-12T17:20:36.837Z,84.58
2023-01-12T17:25:38.607Z,83.89
2023-01-12T17:30:41.681Z,83.52
2023-01-12T17:35:43.577Z,83.76
2023-01-12T17:40:45.275Z,84.53
2023-01-12T17:45:46.963Z,84.56
2023-01-12T17:50:48.923Z,84.69
2023-01-12T17:55:52.307Z,82.96
2023-01-12T18:00:54.804Z,82.44
2023-01-12T18:06:04.477Z,80.55
2023-01-12T18:11:08.797Z,81.25
2023-01-12T18:16:12.836Z,80.07
2023-01-12T18:21:18.474Z,80.46
2023-01-12T18:26:25.136Z,81.30
2023-01-12T18:31:31.924Z,80.55
2023-01-12T18:36:38.792Z,81.38
2023-01-12T18:42:16.160Z,83.04
2023-01-12T18:47:37.480Z,83.54
2023-01-12T18:52:57.444Z,83.44
2023-01-12T18:57:59.549Z,84.63
2023-01-12T19:03:01.343Z,86.54
2023-01-12T19:08:25.791Z,86.95
2023-01-12T19:13:46.178Z,86.69
2023-01-12T19:18:48.219Z,84.27
2023-01-12T19:24:08.521Z,83.24
2023-01-12T19:29:10.154Z,82.43
2023-01-12T19:34:11.845Z,82.03
2023-01-12T19:39:13.530Z,80.31
2023-01-12T19:44:15.239Z,81.35
2023-01-12T19:49:17.712Z,82.17
2023-01-12T19:54:19.455Z,82.99
2023-01-12T19:59:21.166Z,80.70
2023-01-12T20:04:22.865Z,81.18
2023-01-12T20:09:24.781Z,81.91
2023-01-12T20:14:26.476Z,81.99
2023-01-12T20:19:28.230Z,82.91
2023-01-12T20:24:30.449Z,83.26
2023-01-12T20:29:32.542Z,81.29
2023-01-12T20:34:34.580Z,82.48
2023-01-12T20:39:36.270Z,80.77
2023-01-12T20:44:37.984Z,80.65
2023-01-12T20:49:39.611Z,77.97
2023-01-12T20:54:41.390Z,77.00
2023-01-12T20:59:43.524Z,76.99
2023-01-12T21:04:45.191Z,76.12
2023-01-12T21:09:46.945Z,76.02
2023-01-12T21:14:48.660Z,75.40
2023-01-12T21:19:50.328Z,76.11
2023-01-12T21:24:52.036Z,74.99
2023-01-12T21:29:53.806Z,75.61
2023-01-12T21:34:55.570Z,76.38
2023-01-12T21:39:57.201Z,74.58
2023-01-12T21:44:58.897Z,74.66
2023-01-12T21:50:00.686Z,73.88
2023-01-12T21:55:02.434Z,73.94
2023-01-12T22:00:05.103Z,72.61
2023-01-12T22:05:13.875Z,73.47
2023-01-12T22:10:19.424Z,72.73
2023-01-12T22:15:24.764Z,73.55
2023-01-12T22:20:27.842Z,71.56
2023-01-12T22:25:29.623Z,71.86
2023-01-12T22:30:31.366Z,73.00
2023-01-12T22:35:34.248Z,73.80
2023-01-12T22:40:35.901Z,73.99
2023-01-12T22:45:37.774Z,72.82
2023-01-12T22:50:39.578Z,71.95
2023-01-12T22:55:41.668Z,72.58
2023-01-12T23:00:45.677Z,72.88
2023-01-12T23:05:49.397Z,73.90
2023-01-12T23:10:52.182Z,72.99
2023-01-12T23:15:56.732Z,73.78
2023-01-12T23:21:15.574Z,73.31
2023-01-12T23:26:22.733Z,73.11
2023-01-12T23:31:26.617Z,72.63
2023-01-12T23:36:30.205Z,73.25
2023-01-12T23:41:34.695Z,73.22
2023-01-12T23:46:38.639Z,72.44
2023-01-12T23:51:40.496Z,73.50
2023-01-12T23:56:42.173Z,72.75
